Dera Ismail Khan Weather



Dera Ismail Khan's Current Weather

Temprature 39.25o clear sky

clear sky

Rain: 0 %

Min Temprature39.25o
Max Temprature39.25o
Humidity13
Wind Speed1.21 m/h
Sun Rise05:24:42
Sun Set19:01:05
Current Time: 08-May-2021 15:32:39
Lat/Lon: 31.8327, 70.9024




Dera Ismail Khan's Geo Location



Dera Ismail Khan's Weather Forecast

Time Overall Temp Min Temp Max Temp Humidity Wind Speed Rain
08-May-2021 (Sat)
17:00:00 clear sky 39.190 39.190 39.190 13 0.59 m/h 0 %
20:00:00 clear sky 38.240 36.330 38.240 14 3.89 m/h 0 %
23:00:00 scattered clouds 34.240 31.770 34.240 22 4.37 m/h 0 %
09-May-2021 (Sun)
02:00:00 broken clouds 30.500 30.500 30.500 29 0.56 m/h 0 %
05:00:00 scattered clouds 29.140 29.140 29.140 31 3.05 m/h 0 %
08:00:00 broken clouds 32.370 32.370 32.370 26 3.79 m/h 0 %
11:00:00 scattered clouds 37.340 37.340 37.340 17 2.87 m/h 0 %
14:00:00 clear sky 40.130 40.130 40.130 13 0.87 m/h 0 %
17:00:00 clear sky 40.610 40.610 40.610 11 1.67 m/h 0 %
20:00:00 broken clouds 36.000 36.000 36.000 17 6.13 m/h 0 %
23:00:00 broken clouds 31.420 31.420 31.420 27 7.4 m/h 0 %
10-May-2021 (Mon)
02:00:00 scattered clouds 29.290 29.290 29.290 32 4.04 m/h 0 %
05:00:00 broken clouds 27.810 27.810 27.810 38 3.53 m/h 0 %
08:00:00 overcast clouds 30.340 30.340 30.340 32 3.54 m/h 0 %
11:00:00 overcast clouds 35.590 35.590 35.590 21 3.18 m/h 0 %
14:00:00 overcast clouds 39.410 39.410 39.410 15 2.01 m/h 0 %
17:00:00 overcast clouds 40.750 40.750 40.750 11 1.61 m/h 0 %
20:00:00 scattered clouds 36.460 36.460 36.460 15 0.37 m/h 0 %
23:00:00 scattered clouds 34.220 34.220 34.220 18 0.96 m/h 0 %
11-May-2021 (Tue)
02:00:00 broken clouds 32.080 32.080 32.080 20 1.62 m/h 0 %
05:00:00 scattered clouds 30.120 30.120 30.120 24 2.64 m/h 0 %
08:00:00 clear sky 33.910 33.910 33.910 20 4.46 m/h 0 %
11:00:00 scattered clouds 39.250 39.250 39.250 14 3.21 m/h 0 %
14:00:00 broken clouds 41.860 41.860 41.860 10 1.78 m/h 0 %
17:00:00 broken clouds 37.450 37.450 37.450 14 8.25 m/h 0 %
20:00:00 overcast clouds 35.770 35.770 35.770 17 3.87 m/h 0 %
23:00:00 broken clouds 32.440 32.440 32.440 24 7.23 m/h 0 %
12-May-2021 (Wed)
02:00:00 broken clouds 30.330 30.330 30.330 32 5.75 m/h 0 %
05:00:00 broken clouds 27.330 27.330 27.330 40 6.34 m/h 0 %
08:00:00 scattered clouds 31.020 31.020 31.020 29 6.29 m/h 0 %
11:00:00 few clouds 35.060 35.060 35.060 23 5.37 m/h 0 %
14:00:00 clear sky 37.590 37.590 37.590 19 3.65 m/h 0 %
17:00:00 clear sky 35.440 35.440 35.440 23 9.41 m/h 0 %
20:00:00 light rain 27.160 27.160 27.160 50 7.5 m/h 62 %
23:00:00 few clouds 25.990 25.990 25.990 51 4.17 m/h 0 %
13-May-2021 (Thu)
02:00:00 overcast clouds 25.750 25.750 25.750 51 2.38 m/h 0 %
05:00:00 broken clouds 24.640 24.640 24.640 56 3.69 m/h 0 %
08:00:00 light rain 26.930 26.930 26.930 46 3.06 m/h 64 %
11:00:00 light rain 32.080 32.080 32.080 31 3.63 m/h 26 %
14:00:00 clear sky 35.190 35.190 35.190 24 2.82 m/h 0 %


Dera Ismail Khan's Tourist Spots

Historical Places in Dera Ismail Khan

Famous Cities (60)